createdAt,value
2024-03-02T00:02:00.501Z,100.00
2024-03-02T00:04:27.256Z,100.00
2024-03-02T00:06:56.049Z,100.00
2024-03-02T00:09:22.686Z,100.00
2024-03-02T00:11:49.170Z,100.00
2024-03-02T00:14:16.776Z,100.00
2024-03-02T00:16:43.676Z,100.00
2024-03-02T00:19:10.672Z,100.00
2024-03-02T00:21:37.330Z,100.00
2024-03-02T00:24:22.053Z,100.00
2024-03-02T00:26:49.013Z,100.00
2024-03-02T00:29:20.374Z,100.00
2024-03-02T00:31:47.455Z,100.00
2024-03-02T00:34:17.369Z,100.00
2024-03-02T00:36:45.053Z,100.00
2024-03-02T00:39:15.780Z,100.00
2024-03-02T00:41:45.447Z,100.00
2024-03-02T00:44:14.263Z,100.00
2024-03-02T00:46:44.748Z,100.00
2024-03-02T00:49:25.085Z,100.00
2024-03-02T00:51:53.962Z,100.00
2024-03-02T00:54:22.563Z,100.00
2024-03-02T00:56:49.836Z,100.00
2024-03-02T00:59:16.381Z,100.00
2024-03-02T01:01:44.025Z,100.00
2024-03-02T01:04:10.668Z,100.00
2024-03-02T01:06:37.435Z,100.00
2024-03-02T01:09:04.200Z,100.00
2024-03-02T01:11:31.287Z,100.00
2024-03-02T01:13:57.857Z,100.00
2024-03-02T01:16:24.480Z,100.00
2024-03-02T01:18:51.194Z,100.00
2024-03-02T01:21:18.181Z,100.00
2024-03-02T01:23:44.977Z,100.00
2024-03-02T01:26:11.476Z,100.00
2024-03-02T01:28:37.974Z,100.00
2024-03-02T01:31:04.666Z,100.00
2024-03-02T01:33:31.265Z,100.00
2024-03-02T01:35:57.991Z,100.00
2024-03-02T01:38:24.528Z,100.00
2024-03-02T01:40:51.213Z,100.00
2024-03-02T01:43:18.004Z,100.00
2024-03-02T01:45:44.659Z,100.00
2024-03-02T01:48:11.454Z,100.00
2024-03-02T01:50:37.984Z,100.00
2024-03-02T01:53:04.861Z,100.00
2024-03-02T01:55:32.203Z,100.00
2024-03-02T01:57:59.827Z,100.00
2024-03-02T02:00:27.352Z,100.00
2024-03-02T02:02:54.616Z,100.00
2024-03-02T02:05:21.406Z,100.00
2024-03-02T02:07:48.016Z,100.00
2024-03-02T02:10:14.622Z,100.00
2024-03-02T02:12:41.286Z,100.00
2024-03-02T02:15:27.753Z,100.00
2024-03-02T02:17:55.558Z,100.00
2024-03-02T02:20:22.207Z,100.00
2024-03-02T02:23:02.487Z,100.00
2024-03-02T02:25:29.852Z,100.00
2024-03-02T02:27:58.146Z,100.00
2024-03-02T02:30:27.618Z,100.00
2024-03-02T02:32:54.814Z,100.00
2024-03-02T02:35:21.439Z,100.00
2024-03-02T02:37:49.789Z,100.00
2024-03-02T02:40:16.841Z,100.00
2024-03-02T02:42:43.509Z,100.00
2024-03-02T02:45:10.246Z,100.00
2024-03-02T02:47:36.806Z,100.00
2024-03-02T02:50:04.502Z,100.00
2024-03-02T02:52:40.541Z,100.00
2024-03-02T02:55:12.314Z,100.00
2024-03-02T02:57:41.403Z,100.00
2024-03-02T03:00:11.677Z,100.00
2024-03-02T03:02:39.708Z,100.00
2024-03-02T03:05:07.577Z,100.00
2024-03-02T03:07:35.490Z,100.00
2024-03-02T03:10:02.318Z,100.00
2024-03-02T03:12:28.881Z,100.00
2024-03-02T03:14:55.454Z,100.00
2024-03-02T03:17:22.798Z,100.00
2024-03-02T03:19:49.419Z,100.00
2024-03-02T03:22:15.981Z,100.00
2024-03-02T03:24:42.528Z,100.00
2024-03-02T03:27:10.426Z,100.00
2024-03-02T03:29:40.072Z,100.00
2024-03-02T03:32:08.002Z,100.00
2024-03-02T03:34:35.074Z,100.00
2024-03-02T03:37:01.826Z,100.00
2024-03-02T03:39:29.179Z,100.00
2024-03-02T03:41:56.216Z,100.00
2024-03-02T03:44:22.717Z,100.00
2024-03-02T03:46:49.394Z,100.00
2024-03-02T03:49:15.838Z,100.00
2024-03-02T03:51:42.369Z,100.00
2024-03-02T03:54:09.287Z,100.00
2024-03-02T03:56:35.764Z,100.00
2024-03-02T03:59:02.775Z,100.00
2024-03-02T04:01:29.423Z,100.00
2024-03-02T04:03:56.146Z,100.00
2024-03-02T04:06:22.818Z,100.00
2024-03-02T04:08:49.393Z,100.00
2024-03-02T04:11:16.112Z,100.00
2024-03-02T04:13:42.626Z,100.00
2024-03-02T04:16:09.150Z,100.00
2024-03-02T04:18:36.227Z,100.00
2024-03-02T04:21:02.850Z,100.00
2024-03-02T04:23:29.351Z,100.00
2024-03-02T04:25:55.789Z,100.00
2024-03-02T04:28:22.308Z,100.00
2024-03-02T04:30:48.878Z,100.00
2024-03-02T04:33:15.531Z,100.00
2024-03-02T04:35:42.158Z,100.00
2024-03-02T04:38:08.611Z,100.00
2024-03-02T04:40:35.103Z,100.00
2024-03-02T04:43:01.782Z,100.00
2024-03-02T04:45:28.310Z,100.00
2024-03-02T04:47:54.829Z,100.00
2024-03-02T04:50:21.318Z,100.00
2024-03-02T04:52:47.844Z,100.00
2024-03-02T04:55:17.296Z,100.00
2024-03-02T04:57:47.512Z,100.00
2024-03-02T05:00:14.600Z,100.00
2024-03-02T05:02:41.117Z,100.00
2024-03-02T05:05:07.640Z,100.00
2024-03-02T05:07:34.190Z,100.00
2024-03-02T05:10:00.936Z,100.00
2024-03-02T05:12:50.405Z,100.00
2024-03-02T05:15:17.102Z,100.00
2024-03-02T05:17:46.994Z,100.00
2024-03-02T05:20:13.838Z,100.00
2024-03-02T05:22:40.853Z,100.00
2024-03-02T05:25:08.400Z,100.00
2024-03-02T05:27:35.357Z,100.00
2024-03-02T05:30:02.739Z,100.00
2024-03-02T05:32:29.352Z,100.00
2024-03-02T05:34:56.243Z,100.00
2024-03-02T05:37:22.916Z,100.00
2024-03-02T05:39:49.611Z,100.00
2024-03-02T05:42:17.905Z,100.00
2024-03-02T05:44:44.572Z,100.00
2024-03-02T05:47:11.114Z,100.00
2024-03-02T05:49:37.840Z,100.00
2024-03-02T05:52:04.543Z,100.00
2024-03-02T05:54:31.388Z,100.00
2024-03-02T05:56:57.930Z,100.00
2024-03-02T05:59:24.497Z,100.00
2024-03-02T06:01:53.698Z,100.00
2024-03-02T06:04:20.188Z,100.00
2024-03-02T06:06:46.978Z,100.00
2024-03-02T06:09:13.754Z,100.00
2024-03-02T06:11:41.724Z,100.00
2024-03-02T06:14:09.613Z,100.00
2024-03-02T06:16:36.378Z,100.00
2024-03-02T06:19:03.495Z,100.00
2024-03-02T06:21:30.303Z,100.00
2024-03-02T06:23:57.855Z,100.00
2024-03-02T06:26:26.102Z,100.00
2024-03-02T06:28:53.287Z,100.00
2024-03-02T06:31:20.136Z,100.00
2024-03-02T06:33:46.775Z,100.00
2024-03-02T06:36:13.437Z,100.00
2024-03-02T06:38:43.550Z,100.00
2024-03-02T06:41:10.455Z,100.00
2024-03-02T06:43:36.988Z,100.00
2024-03-02T06:46:03.794Z,100.00
2024-03-02T06:48:31.280Z,100.00
2024-03-02T06:50:59.533Z,100.00
2024-03-02T06:53:26.479Z,100.00
2024-03-02T06:55:53.103Z,100.00
2024-03-02T06:58:19.671Z,100.00
2024-03-02T07:00:46.411Z,100.00
2024-03-02T07:03:13.684Z,100.00
2024-03-02T07:05:40.530Z,100.00
2024-03-02T07:08:07.412Z,100.00
2024-03-02T07:10:33.950Z,100.00
2024-03-02T07:13:00.739Z,100.00
2024-03-02T07:16:05.588Z,100.00
2024-03-02T07:18:32.580Z,100.00
2024-03-02T07:21:00.637Z,100.00
2024-03-02T07:23:28.431Z,100.00
2024-03-02T07:28:27.878Z,100.00
2024-03-02T07:31:02.229Z,100.00
2024-03-02T07:33:28.936Z,100.00
2024-03-02T07:35:56.654Z,100.00
2024-03-02T07:38:23.759Z,100.00
2024-03-02T07:40:54.062Z,100.00
2024-03-02T07:43:21.021Z,100.00
2024-03-02T07:45:48.305Z,100.00
2024-03-02T07:48:15.818Z,100.00
2024-03-02T07:50:42.594Z,100.00
2024-03-02T07:53:09.472Z,100.00
2024-03-02T07:55:36.097Z,100.00
2024-03-02T07:58:02.876Z,100.00
2024-03-02T08:00:29.678Z,100.00
2024-03-02T08:02:57.117Z,100.00
2024-03-02T08:05:23.738Z,100.00
2024-03-02T08:07:53.847Z,100.00
2024-03-02T08:10:20.812Z,100.00
2024-03-02T08:12:47.432Z,100.00
2024-03-02T08:15:14.089Z,100.00
2024-03-02T08:17:49.502Z,100.00
2024-03-02T08:20:16.409Z,100.00
2024-03-02T08:22:43.339Z,100.00
2024-03-02T08:25:10.938Z,100.00
2024-03-02T08:27:38.100Z,100.00
2024-03-02T08:30:07.842Z,100.00
2024-03-02T08:32:34.663Z,100.00
2024-03-02T08:35:01.183Z,100.00
2024-03-02T08:37:27.865Z,100.00
2024-03-02T08:39:54.771Z,100.00
2024-03-02T08:42:21.502Z,100.00
2024-03-02T08:44:48.106Z,100.00
2024-03-02T08:47:15.001Z,100.00
2024-03-02T08:49:41.472Z,100.00
2024-03-02T08:52:08.123Z,100.00
2024-03-02T08:54:35.224Z,100.00
2024-03-02T08:57:02.038Z,100.00
2024-03-02T08:59:29.019Z,100.00
2024-03-02T09:01:55.766Z,100.00
2024-03-02T09:04:25.303Z,100.00
2024-03-02T09:06:53.449Z,100.00
2024-03-02T09:09:19.979Z,100.00
2024-03-02T09:11:48.294Z,100.00
2024-03-02T09:14:16.278Z,100.00
2024-03-02T09:16:43.955Z,100.00
2024-03-02T09:19:11.607Z,100.00
2024-03-02T09:21:38.602Z,100.00
2024-03-02T09:24:05.619Z,100.00
2024-03-02T09:26:32.687Z,100.00
2024-03-02T09:28:59.597Z,100.00
2024-03-02T09:31:26.174Z,100.00
2024-03-02T09:33:52.914Z,100.00
2024-03-02T09:36:20.977Z,100.00
2024-03-02T09:38:48.002Z,100.00
2024-03-02T09:41:15.903Z,100.00
2024-03-02T09:43:42.902Z,100.00
2024-03-02T09:46:11.191Z,100.00
2024-03-02T09:48:38.361Z,100.00
2024-03-02T09:51:06.126Z,100.00
2024-03-02T09:53:35.251Z,100.00
2024-03-02T09:56:02.064Z,100.00
2024-03-02T09:58:28.955Z,100.00
2024-03-02T10:00:55.584Z,100.00
2024-03-02T10:03:25.571Z,100.00
2024-03-02T10:05:53.087Z,100.00
2024-03-02T10:08:19.854Z,99.10
2024-03-02T10:10:46.943Z,99.77
2024-03-02T10:13:14.884Z,100.00
2024-03-02T10:15:42.438Z,100.00
2024-03-02T10:18:13.116Z,99.89
2024-03-02T10:20:40.863Z,99.63
2024-03-02T10:23:15.021Z,96.59
2024-03-02T10:25:50.944Z,95.81
2024-03-02T10:28:21.647Z,95.28
2024-03-02T10:30:50.631Z,95.65
2024-03-02T10:33:18.494Z,93.45
2024-03-02T10:35:45.363Z,95.85
2024-03-02T10:38:12.628Z,97.05
2024-03-02T10:40:39.251Z,95.57
2024-03-02T10:43:07.265Z,92.44
2024-03-02T10:45:34.605Z,92.33
2024-03-02T10:48:03.442Z,94.91
2024-03-02T10:50:31.110Z,94.93
2024-03-02T10:52:57.733Z,93.25
2024-03-02T10:55:24.729Z,95.11
2024-03-02T10:57:54.993Z,94.84
2024-03-02T11:00:27.986Z,93.88
2024-03-02T11:02:59.498Z,92.37
2024-03-02T11:05:35.337Z,93.36
2024-03-02T11:08:04.469Z,94.86
2024-03-02T11:10:37.924Z,92.35
2024-03-02T11:13:10.519Z,88.35
2024-03-02T11:15:40.294Z,88.66
2024-03-02T11:18:09.949Z,89.86
2024-03-02T11:20:41.276Z,90.15
2024-03-02T11:23:09.459Z,88.50
2024-03-02T11:25:37.031Z,87.30
2024-03-02T11:28:05.641Z,91.68
2024-03-02T11:30:36.146Z,92.68
2024-03-02T11:33:10.851Z,91.59
2024-03-02T11:35:44.006Z,89.05
2024-03-02T11:38:10.994Z,90.45
2024-03-02T11:40:37.594Z,90.54
2024-03-02T11:43:06.296Z,91.07
2024-03-02T11:45:34.791Z,93.83
2024-03-02T11:48:01.638Z,91.90
2024-03-02T11:50:34.673Z,91.46
2024-03-02T11:53:02.059Z,89.66
2024-03-02T11:55:30.256Z,88.75
2024-03-02T11:57:57.339Z,91.11
2024-03-02T12:00:23.914Z,91.69
2024-03-02T12:03:10.158Z,90.82
2024-03-02T12:05:37.609Z,91.99
2024-03-02T12:08:06.161Z,90.70
2024-03-02T12:10:33.386Z,90.33
2024-03-02T12:13:04.077Z,89.12
2024-03-02T12:15:31.910Z,90.19
2024-03-02T12:18:00.098Z,88.22
2024-03-02T12:20:30.288Z,88.88
2024-03-02T12:23:01.895Z,88.10
2024-03-02T12:25:28.712Z,89.75
2024-03-02T12:27:57.475Z,88.61
2024-03-02T12:30:24.801Z,88.37
2024-03-02T12:32:52.092Z,87.99
2024-03-02T12:35:19.399Z,89.16
2024-03-02T12:37:47.694Z,88.68
2024-03-02T12:40:16.001Z,90.15
2024-03-02T12:42:45.236Z,90.04
2024-03-02T12:45:12.718Z,87.75
2024-03-02T12:47:41.219Z,88.00
2024-03-02T12:50:08.700Z,87.87
2024-03-02T12:52:35.548Z,87.55
2024-03-02T12:55:04.835Z,88.70
2024-03-02T12:57:33.523Z,88.78
2024-03-02T13:00:10.270Z,88.77
2024-03-02T13:02:40.410Z,90.21
2024-03-02T13:05:12.119Z,89.47
2024-03-02T13:07:39.536Z,88.59
2024-03-02T13:10:08.860Z,90.79
2024-03-02T13:12:36.852Z,88.86
2024-03-02T13:15:04.914Z,87.50
2024-03-02T13:17:36.983Z,86.69
2024-03-02T13:20:11.786Z,84.97
2024-03-02T13:22:38.931Z,86.55
2024-03-02T13:25:06.582Z,87.71
2024-03-02T13:27:34.000Z,87.97
2024-03-02T13:30:00.841Z,90.01
2024-03-02T13:32:27.570Z,86.10
2024-03-02T13:34:54.284Z,87.07
2024-03-02T13:37:22.373Z,85.51
2024-03-02T13:39:48.957Z,84.33
2024-03-02T13:42:16.396Z,84.98
2024-03-02T13:44:52.079Z,83.85
2024-03-02T13:47:18.626Z,86.58
2024-03-02T13:49:47.065Z,85.35
2024-03-02T13:52:17.754Z,83.04
2024-03-02T13:54:46.501Z,84.80
2024-03-02T13:57:13.759Z,83.83
2024-03-02T13:59:41.550Z,84.82
2024-03-02T14:02:09.958Z,82.77
2024-03-02T14:04:37.057Z,84.23
2024-03-02T14:07:04.217Z,84.18
2024-03-02T14:09:31.328Z,85.70
2024-03-02T14:11:58.148Z,83.64
2024-03-02T14:14:25.559Z,84.96
2024-03-02T14:16:52.607Z,85.92
2024-03-02T14:19:19.320Z,86.00
2024-03-02T14:21:45.867Z,84.67
2024-03-02T14:24:12.473Z,83.73
2024-03-02T14:26:39.068Z,84.21
2024-03-02T14:29:06.466Z,82.57
2024-03-02T14:31:33.351Z,81.23
2024-03-02T14:34:00.881Z,81.72
2024-03-02T14:36:29.328Z,81.26
2024-03-02T14:38:56.586Z,80.67
2024-03-02T14:41:25.313Z,79.98
2024-03-02T14:43:52.096Z,78.95
2024-03-02T14:46:19.504Z,78.38
2024-03-02T14:48:47.528Z,78.05
2024-03-02T14:51:14.848Z,78.33
2024-03-02T14:53:41.673Z,77.03
2024-03-02T14:56:08.231Z,78.40
2024-03-02T14:58:36.567Z,77.59
2024-03-02T15:20:26.923Z,80.96
2024-03-02T15:22:53.726Z,80.51
2024-03-02T15:25:20.307Z,80.43
2024-03-02T15:27:47.055Z,79.58
2024-03-02T15:30:13.954Z,80.47
2024-03-02T15:32:40.413Z,79.97
2024-03-02T15:35:07.517Z,79.61
2024-03-02T15:37:34.032Z,80.54
2024-03-02T15:40:06.944Z,80.51
2024-03-02T15:42:34.626Z,80.18
2024-03-02T15:45:01.194Z,79.55
2024-03-02T15:47:28.057Z,79.88
2024-03-02T15:49:54.842Z,80.54
2024-03-02T15:52:22.418Z,80.18
2024-03-02T15:54:52.465Z,82.90
2024-03-02T15:57:20.059Z,82.88
2024-03-02T15:59:46.602Z,83.00
2024-03-02T16:02:13.361Z,84.03
2024-03-02T16:04:39.859Z,83.82
2024-03-02T16:07:06.584Z,84.45
2024-03-02T16:09:33.297Z,84.86
2024-03-02T16:11:59.868Z,84.48
2024-03-02T16:14:26.499Z,86.35
2024-03-02T16:16:53.260Z,86.38
2024-03-02T16:19:29.183Z,86.78
2024-03-02T16:21:59.526Z,87.57
2024-03-02T16:24:26.475Z,88.14
2024-03-02T16:26:53.238Z,86.24
2024-03-02T16:29:19.724Z,86.06
2024-03-02T16:31:46.210Z,86.09
2024-03-02T16:34:13.097Z,85.78
2024-03-02T16:36:41.699Z,86.10
2024-03-02T16:39:10.189Z,84.83
2024-03-02T16:41:37.055Z,84.69
2024-03-02T16:44:07.087Z,84.21
2024-03-02T16:46:34.184Z,84.80
2024-03-02T16:49:00.840Z,85.50
2024-03-02T16:51:27.441Z,84.61
2024-03-02T16:53:54.034Z,86.48
2024-03-02T16:56:20.526Z,87.91
2024-03-02T16:58:47.032Z,88.26
2024-03-02T17:01:13.676Z,88.35
2024-03-02T17:03:40.261Z,89.60
2024-03-02T17:06:06.873Z,88.70
2024-03-02T17:08:33.489Z,88.64
2024-03-02T17:11:00.239Z,87.81
2024-03-02T17:13:26.830Z,88.01
2024-03-02T17:15:53.406Z,87.87
2024-03-02T17:18:20.023Z,88.61
2024-03-02T17:20:46.497Z,88.75
2024-03-02T17:23:13.028Z,88.78
2024-03-02T17:25:39.527Z,89.97
2024-03-02T17:28:28.705Z,89.76
2024-03-02T17:30:56.787Z,89.38
2024-03-02T17:33:23.344Z,89.15
2024-03-02T17:35:51.164Z,89.35
2024-03-02T17:38:18.131Z,89.30
2024-03-02T17:40:45.723Z,88.83
2024-03-02T17:43:13.453Z,88.44
2024-03-02T17:45:40.900Z,87.94
2024-03-02T17:48:12.959Z,87.75
2024-03-02T17:50:39.865Z,88.69
2024-03-02T17:53:06.627Z,89.03
2024-03-02T17:55:33.246Z,89.62
2024-03-02T17:57:59.794Z,89.44
2024-03-02T18:00:26.494Z,90.37
2024-03-02T18:02:52.999Z,90.26
2024-03-02T18:05:19.533Z,90.06
2024-03-02T18:07:46.059Z,89.84
2024-03-02T18:10:12.876Z,91.79
2024-03-02T18:12:39.730Z,91.17
2024-03-02T18:15:09.848Z,91.49
2024-03-02T18:17:36.793Z,91.17
2024-03-02T18:20:05.788Z,91.24
2024-03-02T18:22:33.277Z,89.82
2024-03-02T18:25:02.768Z,90.36
2024-03-02T18:27:29.780Z,91.61
2024-03-02T18:29:56.410Z,91.39
2024-03-02T18:32:22.888Z,91.37
2024-03-02T18:34:49.680Z,91.45
2024-03-02T18:37:17.385Z,91.41
2024-03-02T18:39:44.159Z,91.92
2024-03-02T18:42:10.681Z,91.86
2024-03-02T18:44:37.255Z,92.16
2024-03-02T18:47:04.035Z,91.10
2024-03-02T18:49:30.658Z,91.39
2024-03-02T18:51:57.330Z,92.07
2024-03-02T18:54:23.880Z,92.10
2024-03-02T18:56:50.429Z,91.35
2024-03-02T18:59:16.940Z,93.36
2024-03-02T19:01:43.539Z,93.16
2024-03-02T19:04:10.184Z,93.82
2024-03-02T19:06:36.805Z,95.28
2024-03-02T19:09:03.496Z,96.13
2024-03-02T19:11:30.069Z,96.75
2024-03-02T19:13:58.221Z,96.49
2024-03-02T19:16:24.853Z,97.63
2024-03-02T19:18:51.374Z,98.02
2024-03-02T19:21:17.903Z,98.59
2024-03-02T19:23:45.644Z,97.47
2024-03-02T19:26:19.076Z,97.89
2024-03-02T19:28:46.256Z,98.81
2024-03-02T19:31:14.141Z,99.64
2024-03-02T19:33:40.718Z,100.00
2024-03-02T19:36:07.567Z,100.00
2024-03-02T19:38:37.713Z,100.00
2024-03-02T19:41:06.029Z,100.00
2024-03-02T19:43:33.089Z,100.00
2024-03-02T19:45:59.746Z,100.00
2024-03-02T19:48:26.277Z,100.00
2024-03-02T19:50:53.788Z,100.00
2024-03-02T19:53:20.328Z,100.00
2024-03-02T19:55:47.857Z,100.00
2024-03-02T19:58:14.643Z,100.00
2024-03-02T20:00:41.891Z,100.00
2024-03-02T20:03:08.526Z,100.00
2024-03-02T20:05:35.077Z,100.00
2024-03-02T20:08:01.704Z,100.00
2024-03-02T20:10:28.190Z,100.00
2024-03-02T20:12:54.837Z,100.00
2024-03-02T20:15:21.436Z,100.00
2024-03-02T20:17:48.231Z,100.00
2024-03-02T20:20:16.814Z,100.00
2024-03-02T20:22:43.931Z,100.00
2024-03-02T20:25:14.221Z,100.00
2024-03-02T20:27:44.866Z,100.00
2024-03-02T20:30:12.617Z,100.00
2024-03-02T20:32:40.036Z,100.00
2024-03-02T20:35:07.619Z,100.00
2024-03-02T20:37:34.363Z,100.00
2024-03-02T20:40:02.109Z,100.00
2024-03-02T20:42:28.833Z,100.00
2024-03-02T20:44:55.519Z,100.00
2024-03-02T20:47:24.000Z,100.00
2024-03-02T20:49:52.341Z,100.00
2024-03-02T20:52:19.300Z,100.00
2024-03-02T20:54:46.590Z,100.00
2024-03-02T20:57:13.405Z,100.00
2024-03-02T20:59:40.490Z,100.00
2024-03-02T21:02:07.631Z,100.00
2024-03-02T21:04:34.331Z,100.00
2024-03-02T21:07:01.097Z,100.00
2024-03-02T21:09:27.764Z,100.00
2024-03-02T21:11:54.368Z,100.00
2024-03-02T21:14:20.877Z,100.00
2024-03-02T21:16:47.605Z,100.00
2024-03-02T21:19:14.279Z,100.00
2024-03-02T21:21:42.967Z,100.00
2024-03-02T21:24:09.668Z,100.00
2024-03-02T21:26:43.606Z,100.00
2024-03-02T21:29:12.259Z,100.00
2024-03-02T21:31:38.981Z,100.00
2024-03-02T21:34:06.221Z,100.00
2024-03-02T21:36:33.930Z,100.00
2024-03-02T21:39:04.338Z,100.00
2024-03-02T21:41:32.266Z,100.00
2024-03-02T21:43:58.806Z,100.00
2024-03-02T21:46:25.427Z,100.00
2024-03-02T21:48:53.112Z,100.00
2024-03-02T21:51:20.001Z,100.00
2024-03-02T21:53:46.956Z,100.00
2024-03-02T21:56:14.157Z,100.00
2024-03-02T21:58:40.973Z,100.00
2024-03-02T22:01:08.089Z,100.00
2024-03-02T22:03:34.811Z,100.00
2024-03-02T22:06:01.385Z,100.00
2024-03-02T22:08:28.500Z,100.00
2024-03-02T22:10:56.118Z,100.00
2024-03-02T22:13:22.952Z,100.00
2024-03-02T22:15:50.170Z,100.00
2024-03-02T22:18:16.855Z,100.00
2024-03-02T22:20:43.490Z,100.00
2024-03-02T22:23:09.984Z,100.00
2024-03-02T22:25:36.613Z,100.00
2024-03-02T22:28:03.220Z,100.00
2024-03-02T22:30:29.809Z,100.00
2024-03-02T22:32:58.328Z,100.00
2024-03-02T22:35:27.941Z,100.00
2024-03-02T22:37:55.035Z,100.00
2024-03-02T22:40:23.955Z,100.00
2024-03-02T22:42:50.601Z,100.00
2024-03-02T22:45:17.217Z,100.00
2024-03-02T22:47:43.761Z,100.00
2024-03-02T22:50:11.216Z,100.00
2024-03-02T22:52:37.777Z,100.00
2024-03-02T22:55:04.883Z,100.00
2024-03-02T22:57:31.565Z,100.00
2024-03-02T22:59:58.082Z,100.00
2024-03-02T23:02:27.757Z,100.00
2024-03-02T23:04:54.291Z,100.00
2024-03-02T23:07:21.976Z,100.00
2024-03-02T23:09:48.966Z,100.00
2024-03-02T23:12:15.695Z,100.00
2024-03-02T23:14:42.353Z,100.00
2024-03-02T23:17:08.882Z,100.00
2024-03-02T23:19:35.501Z,100.00
2024-03-02T23:22:02.244Z,100.00
2024-03-02T23:24:28.824Z,100.00
2024-03-02T23:26:55.393Z,100.00
2024-03-02T23:29:21.993Z,100.00
2024-03-02T23:31:48.498Z,100.00
2024-03-02T23:34:15.087Z,100.00
2024-03-02T23:36:41.796Z,100.00
2024-03-02T23:39:08.377Z,100.00
2024-03-02T23:41:35.264Z,100.00
2024-03-02T23:44:03.025Z,100.00
2024-03-02T23:46:29.896Z,100.00
2024-03-02T23:48:56.912Z,100.00
2024-03-02T23:51:23.879Z,100.00
2024-03-02T23:53:50.622Z,100.00
2024-03-02T23:56:17.290Z,100.00
2024-03-02T23:58:45.772Z,100.00
